createdAt,value
2023-02-17T00:00:21.672Z,57.56
2023-02-17T00:02:48.191Z,57.69
2023-02-17T00:05:14.793Z,57.70
2023-02-17T00:07:41.556Z,57.95
2023-02-17T00:10:09.138Z,57.67
2023-02-17T00:12:36.430Z,58.60
2023-02-17T00:15:03.846Z,57.61
2023-02-17T00:17:30.352Z,57.80
2023-02-17T00:22:34.644Z,57.72
2023-02-17T00:25:01.165Z,58.08
2023-02-17T00:27:27.676Z,57.82
2023-02-17T00:29:54.223Z,57.76
2023-02-17T00:32:21.036Z,57.19
2023-02-17T00:34:47.537Z,56.79
2023-02-17T00:39:45.312Z,57.78
2023-02-17T00:42:11.845Z,57.79
2023-02-17T00:44:38.374Z,58.16
2023-02-17T00:47:04.914Z,58.14
2023-02-17T00:49:31.481Z,58.41
2023-02-17T00:52:01.993Z,58.87
2023-02-17T00:54:29.030Z,59.69
2023-02-17T00:56:55.886Z,59.20
2023-02-17T00:59:22.448Z,59.22
2023-02-17T01:01:48.987Z,59.47
2023-02-17T01:04:15.646Z,59.32
2023-02-17T01:06:42.227Z,59.18
2023-02-17T01:09:13.158Z,59.26
2023-02-17T01:11:40.568Z,59.77
2023-02-17T01:14:07.527Z,59.83
2023-02-17T01:16:37.933Z,59.62
2023-02-17T01:19:07.735Z,59.56
2023-02-17T01:21:35.507Z,60.33
2023-02-17T01:24:05.390Z,60.25
2023-02-17T01:26:34.008Z,60.18
2023-02-17T01:29:00.552Z,60.05
2023-02-17T01:31:28.023Z,60.61
2023-02-17T01:33:57.268Z,60.45
2023-02-17T01:36:24.328Z,59.97
2023-02-17T01:38:50.902Z,60.10
2023-02-17T01:41:19.004Z,60.46
2023-02-17T01:44:08.417Z,59.95
2023-02-17T01:46:36.090Z,60.02
2023-02-17T01:49:14.234Z,59.82
2023-02-17T01:51:41.178Z,60.28
2023-02-17T01:54:19.720Z,61.16
2023-02-17T01:56:48.769Z,60.92
2023-02-17T01:59:21.219Z,59.91
2023-02-17T02:01:52.443Z,60.76
2023-02-17T02:04:22.646Z,60.50
2023-02-17T02:06:49.232Z,60.56
2023-02-17T02:11:54.155Z,61.05
2023-02-17T02:14:22.664Z,60.13
2023-02-17T02:17:04.898Z,60.58
2023-02-17T02:19:59.561Z,59.27
2023-02-17T02:22:52.675Z,59.09
2023-02-17T02:25:32.517Z,59.70
2023-02-17T02:28:22.917Z,60.55
2023-02-17T02:31:20.568Z,60.42
2023-02-17T02:33:54.324Z,59.81
2023-02-17T02:36:31.004Z,59.33
2023-02-17T02:39:10.316Z,59.21
2023-02-17T02:41:42.500Z,58.83
2023-02-17T02:44:13.069Z,59.21
2023-02-17T02:46:39.612Z,58.69
2023-02-17T02:49:07.332Z,59.03
2023-02-17T02:51:46.920Z,59.25
2023-02-17T02:54:27.013Z,59.06
2023-02-17T02:57:04.479Z,59.25
2023-02-17T02:59:36.675Z,58.47
2023-02-17T03:02:03.142Z,58.50
2023-02-17T03:04:41.521Z,59.09
2023-02-17T03:07:22.349Z,58.91
2023-02-17T03:09:54.201Z,59.07
2023-02-17T03:15:22.598Z,59.16
2023-02-17T03:17:49.109Z,58.68
2023-02-17T03:20:15.844Z,58.77
2023-02-17T03:22:46.786Z,58.70
2023-02-17T03:25:13.818Z,59.56
2023-02-17T03:27:40.340Z,59.74
2023-02-17T03:30:08.531Z,59.61
2023-02-17T03:32:35.668Z,59.83
2023-02-17T03:35:02.303Z,60.13
2023-02-17T03:37:28.852Z,59.76
2023-02-17T03:39:55.331Z,59.96
2023-02-17T03:42:22.074Z,60.56
2023-02-17T03:44:48.549Z,59.66
2023-02-17T03:47:15.075Z,60.21
2023-02-17T03:52:15.014Z,59.55
2023-02-17T03:54:41.585Z,59.22
2023-02-17T03:57:08.150Z,59.29
2023-02-17T03:59:34.923Z,59.60
2023-02-17T04:02:01.669Z,59.29
2023-02-17T04:04:28.250Z,60.18
2023-02-17T04:06:54.782Z,59.80
2023-02-17T04:09:21.417Z,59.92
2023-02-17T04:11:48.005Z,60.10
2023-02-17T04:14:14.497Z,60.39
2023-02-17T04:16:41.116Z,59.83
2023-02-17T04:19:07.804Z,59.45
2023-02-17T04:21:34.617Z,59.62
2023-02-17T04:24:02.198Z,60.09
2023-02-17T04:26:29.586Z,60.66
2023-02-17T04:28:56.453Z,60.79
2023-02-17T04:31:23.577Z,60.46
2023-02-17T04:33:50.156Z,60.45
2023-02-17T04:36:16.624Z,60.56
2023-02-17T04:41:21.038Z,61.03
2023-02-17T04:46:18.799Z,61.45
2023-02-17T04:48:45.312Z,60.95
2023-02-17T04:51:11.838Z,61.12
2023-02-17T04:53:38.540Z,61.43
2023-02-17T04:56:05.721Z,61.62
2023-02-17T04:58:33.161Z,61.34
2023-02-17T05:01:01.097Z,61.79
2023-02-17T05:03:27.720Z,61.51
2023-02-17T05:05:54.321Z,62.20
2023-02-17T05:08:20.873Z,62.09
2023-02-17T05:10:47.414Z,62.04
2023-02-17T05:15:46.323Z,62.89
2023-02-17T05:18:13.489Z,63.08
2023-02-17T05:20:40.694Z,63.40
2023-02-17T05:25:45.775Z,63.38
2023-02-17T05:28:12.399Z,62.91
2023-02-17T05:30:38.973Z,63.28
2023-02-17T05:35:38.405Z,63.86
2023-02-17T05:38:04.972Z,64.33
2023-02-17T05:40:31.826Z,64.18
2023-02-17T05:42:58.458Z,65.11
2023-02-17T05:45:25.030Z,65.52
2023-02-17T05:47:51.563Z,66.06
2023-02-17T05:50:18.141Z,65.93
2023-02-17T05:52:44.779Z,65.56
2023-02-17T05:55:11.278Z,64.66
2023-02-17T05:57:37.836Z,66.39
2023-02-17T06:00:04.888Z,65.49
2023-02-17T06:02:31.426Z,66.14
2023-02-17T06:04:58.097Z,65.82
2023-02-17T06:07:24.728Z,66.23
2023-02-17T06:09:51.278Z,67.46
2023-02-17T06:12:17.790Z,66.67
2023-02-17T06:14:44.355Z,66.70
2023-02-17T06:17:11.167Z,66.79
2023-02-17T06:19:37.699Z,67.41
2023-02-17T06:22:04.245Z,67.36
2023-02-17T06:24:30.948Z,67.59
2023-02-17T06:26:57.498Z,68.02
2023-02-17T06:29:24.143Z,68.13
2023-02-17T06:31:50.814Z,68.64
2023-02-17T06:34:17.708Z,68.22
2023-02-17T06:36:44.469Z,68.61
2023-02-17T06:39:11.201Z,68.77
2023-02-17T06:41:37.780Z,69.36
2023-02-17T06:44:04.512Z,69.92
2023-02-17T06:46:31.352Z,69.82
2023-02-17T06:48:57.962Z,70.12
2023-02-17T06:51:24.483Z,70.35
2023-02-17T06:53:51.090Z,70.53
2023-02-17T06:56:18.842Z,70.26
2023-02-17T06:58:47.241Z,70.74
2023-02-17T07:01:23.593Z,70.79
2023-02-17T07:03:50.396Z,70.96
2023-02-17T07:06:16.969Z,71.19
2023-02-17T07:08:43.512Z,71.67
2023-02-17T07:11:13.967Z,70.76
2023-02-17T07:13:41.204Z,70.96
2023-02-17T07:16:09.492Z,70.92
2023-02-17T07:18:37.940Z,71.44
2023-02-17T07:21:09.189Z,71.46
2023-02-17T07:23:36.303Z,71.70
2023-02-17T07:26:09.275Z,71.36
2023-02-17T07:28:36.771Z,71.30
2023-02-17T07:31:11.144Z,71.71
2023-02-17T07:33:38.472Z,71.77
2023-02-17T07:36:09.774Z,71.76
2023-02-17T07:38:36.853Z,72.00
2023-02-17T07:41:08.005Z,71.79
2023-02-17T07:43:34.746Z,72.05
2023-02-17T07:46:01.392Z,72.35
2023-02-17T07:48:28.096Z,72.71
2023-02-17T07:50:54.880Z,72.17
2023-02-17T07:55:52.631Z,72.60
2023-02-17T07:58:19.145Z,72.77
2023-02-17T08:00:45.654Z,73.33
2023-02-17T08:03:12.164Z,73.09
2023-02-17T08:05:41.047Z,73.25
2023-02-17T08:08:27.178Z,73.28
2023-02-17T08:11:12.109Z,73.33
2023-02-17T08:13:38.725Z,74.22
2023-02-17T08:16:05.904Z,74.10
2023-02-17T08:18:36.550Z,73.83
2023-02-17T08:21:04.358Z,74.08
2023-02-17T08:23:31.112Z,74.12
2023-02-17T08:25:59.393Z,74.84
2023-02-17T08:28:25.927Z,73.99
2023-02-17T08:30:52.630Z,74.24
2023-02-17T08:33:19.323Z,74.80
2023-02-17T08:35:46.090Z,75.08
2023-02-17T08:38:12.930Z,74.84
2023-02-17T08:40:39.864Z,74.76
2023-02-17T08:43:18.739Z,75.28
2023-02-17T08:45:45.875Z,75.07
2023-02-17T08:48:12.477Z,75.34
2023-02-17T08:50:39.017Z,75.67
2023-02-17T08:53:05.670Z,75.72
2023-02-17T08:55:47.304Z,76.01
2023-02-17T08:58:15.332Z,76.09
2023-02-17T09:00:41.949Z,75.89
2023-02-17T09:03:08.518Z,76.37
2023-02-17T09:05:36.318Z,76.11
2023-02-17T09:08:02.850Z,76.36
2023-02-17T09:10:29.475Z,76.21
2023-02-17T09:15:27.319Z,77.32
2023-02-17T09:17:53.835Z,77.57
2023-02-17T09:20:25.082Z,77.58
2023-02-17T09:22:52.503Z,77.76
2023-02-17T09:30:23.072Z,78.49
2023-02-17T09:32:49.648Z,78.36
2023-02-17T09:37:50.268Z,78.03
2023-02-17T09:40:32.847Z,78.55
2023-02-17T09:42:59.462Z,78.69
2023-02-17T09:45:32.607Z,78.69
2023-02-17T09:48:07.509Z,78.36
2023-02-17T09:50:51.106Z,78.30
2023-02-17T09:53:29.159Z,79.03
2023-02-17T09:55:59.129Z,78.23
2023-02-17T09:58:40.711Z,78.08
2023-02-17T10:01:12.394Z,78.30
2023-02-17T10:03:44.562Z,78.42
2023-02-17T10:06:24.500Z,78.22
2023-02-17T10:09:01.695Z,78.32
2023-02-17T10:11:45.819Z,77.62
2023-02-17T10:14:26.664Z,77.35
2023-02-17T10:17:08.208Z,77.85
2023-02-17T10:22:19.603Z,77.03
2023-02-17T10:24:46.239Z,76.66
2023-02-17T10:27:19.187Z,76.62
2023-02-17T10:30:09.098Z,76.31
2023-02-17T10:32:51.052Z,75.51
2023-02-17T10:35:27.465Z,75.40
2023-02-17T10:38:12.620Z,76.05
2023-02-17T10:40:39.473Z,75.85
2023-02-17T10:43:10.224Z,74.61
2023-02-17T10:45:49.547Z,73.41
2023-02-17T10:50:53.915Z,73.37
2023-02-17T10:53:28.503Z,72.20
2023-02-17T10:56:07.467Z,71.73
2023-02-17T10:58:36.858Z,71.97
2023-02-17T11:01:05.526Z,71.82
2023-02-17T11:03:34.048Z,71.36
2023-02-17T11:06:06.602Z,71.70
2023-02-17T11:08:54.144Z,72.28
2023-02-17T11:11:26.607Z,72.17
2023-02-17T11:14:08.329Z,72.89
2023-02-17T11:16:38.983Z,72.20
2023-02-17T11:19:18.073Z,72.00
2023-02-17T11:21:44.672Z,72.08
2023-02-17T11:24:11.654Z,72.64
2023-02-17T11:26:38.322Z,72.79
2023-02-17T11:29:17.742Z,72.97
2023-02-17T11:31:56.702Z,73.21
2023-02-17T11:34:28.481Z,73.85
2023-02-17T11:37:08.487Z,74.51
2023-02-17T11:39:44.667Z,75.71
2023-02-17T11:42:26.581Z,77.05
2023-02-17T11:44:57.429Z,77.87
2023-02-17T11:47:53.042Z,78.18
2023-02-17T11:50:42.257Z,77.63
2023-02-17T11:53:20.134Z,78.22
2023-02-17T11:55:53.950Z,78.65
2023-02-17T11:58:50.009Z,78.79
2023-02-17T12:01:35.798Z,78.14
2023-02-17T12:04:31.249Z,78.98
2023-02-17T12:07:00.907Z,80.27
2023-02-17T12:09:45.809Z,79.23
2023-02-17T12:12:44.621Z,80.66
2023-02-17T12:15:43.001Z,81.42
2023-02-17T12:18:24.882Z,81.38
2023-02-17T12:21:03.087Z,81.02
2023-02-17T12:24:00.608Z,79.81
2023-02-17T12:26:45.346Z,80.65
2023-02-17T12:29:42.851Z,80.98
2023-02-17T12:32:30.367Z,80.82
2023-02-17T12:35:13.061Z,79.83
2023-02-17T12:37:50.676Z,79.44
2023-02-17T12:40:32.923Z,80.07
2023-02-17T12:43:14.514Z,78.99
2023-02-17T12:45:44.270Z,79.05
2023-02-17T12:48:21.199Z,78.21
2023-02-17T12:51:05.202Z,78.17
2023-02-17T12:53:44.505Z,78.46
2023-02-17T12:56:26.702Z,77.81
2023-02-17T12:58:56.566Z,77.68
2023-02-17T13:01:29.296Z,75.86
2023-02-17T13:06:41.387Z,72.69
2023-02-17T13:09:26.376Z,73.79
2023-02-17T13:11:53.051Z,74.45
2023-02-17T13:14:28.751Z,75.23
2023-02-17T13:16:56.660Z,75.67
2023-02-17T13:19:31.318Z,76.42
2023-02-17T13:22:02.481Z,76.67
2023-02-17T13:30:21.794Z,76.71
2023-02-17T13:33:04.008Z,76.92
2023-02-17T13:35:34.291Z,77.40
2023-02-17T13:38:03.395Z,76.61
2023-02-17T13:40:30.156Z,76.40
2023-02-17T13:42:58.219Z,76.46
2023-02-17T13:45:29.271Z,76.82
2023-02-17T13:47:58.473Z,76.61
2023-02-17T13:50:30.722Z,76.87
2023-02-17T13:52:57.789Z,76.54
2023-02-17T13:55:25.082Z,76.75
2023-02-17T13:57:56.229Z,76.65
2023-02-17T14:00:31.186Z,76.88
2023-02-17T14:02:59.431Z,76.95
2023-02-17T14:05:34.962Z,77.11
2023-02-17T14:08:07.985Z,77.11
2023-02-17T14:10:36.143Z,77.45
2023-02-17T14:13:02.915Z,76.74
2023-02-17T14:15:30.050Z,76.77
2023-02-17T14:17:56.945Z,76.78
2023-02-17T14:20:35.384Z,77.25
2023-02-17T14:23:14.646Z,75.99
2023-02-17T14:25:47.133Z,74.82
2023-02-17T14:28:23.408Z,74.67
2023-02-17T14:30:51.217Z,74.35
2023-02-17T14:33:17.988Z,73.59
2023-02-17T14:35:57.215Z,72.81
2023-02-17T14:41:05.397Z,72.38
2023-02-17T14:43:32.350Z,72.67
2023-02-17T14:45:58.930Z,72.88
2023-02-17T14:48:27.720Z,73.54
2023-02-17T14:50:56.892Z,74.28
2023-02-17T14:53:26.021Z,74.63
2023-02-17T14:56:26.219Z,74.94
2023-02-17T14:58:53.914Z,75.36
2023-02-17T15:01:22.018Z,74.84
2023-02-17T15:03:49.109Z,74.58
2023-02-17T15:06:18.881Z,75.41
2023-02-17T15:11:31.912Z,75.23
2023-02-17T15:13:58.412Z,75.35
2023-02-17T15:16:24.923Z,75.12
2023-02-17T15:18:51.741Z,75.26
2023-02-17T15:21:33.684Z,75.98
2023-02-17T15:26:32.890Z,75.41
2023-02-17T15:29:00.058Z,75.96
2023-02-17T15:31:31.603Z,75.54
2023-02-17T15:34:00.348Z,75.13
2023-02-17T15:36:28.448Z,74.95
2023-02-17T15:38:55.003Z,74.53
2023-02-17T15:44:00.910Z,74.83
2023-02-17T15:46:31.671Z,74.83
2023-02-17T15:48:58.328Z,75.28
2023-02-17T15:51:24.963Z,75.16
2023-02-17T15:53:51.957Z,75.44
2023-02-17T15:56:29.993Z,76.20
2023-02-17T15:58:58.435Z,76.00
2023-02-17T16:04:04.814Z,76.50
2023-02-17T16:06:31.328Z,76.91
2023-02-17T16:09:00.614Z,77.34
2023-02-17T16:11:28.223Z,77.56
2023-02-17T16:13:54.990Z,78.09
2023-02-17T16:16:32.749Z,78.01
2023-02-17T16:19:00.667Z,78.11
2023-02-17T16:21:27.404Z,78.79
2023-02-17T16:23:59.053Z,79.08
2023-02-17T16:26:30.241Z,78.64
2023-02-17T16:28:56.799Z,78.88
2023-02-17T16:31:24.115Z,78.87
2023-02-17T16:33:51.723Z,78.82
2023-02-17T16:36:21.219Z,78.82
2023-02-17T16:38:51.060Z,78.84
2023-02-17T16:41:20.184Z,78.80
2023-02-17T16:43:46.825Z,78.50
2023-02-17T16:46:33.757Z,78.16
2023-02-17T16:49:02.084Z,78.48
2023-02-17T16:51:29.187Z,78.49
2023-02-17T16:53:56.397Z,78.37
2023-02-17T16:56:29.664Z,78.68
2023-02-17T16:58:56.192Z,78.70
2023-02-17T17:01:24.281Z,79.08
2023-02-17T17:03:51.003Z,79.18
2023-02-17T17:06:22.455Z,78.92
2023-02-17T17:08:49.356Z,78.93
2023-02-17T17:11:18.842Z,79.08
2023-02-17T17:13:47.615Z,79.18
2023-02-17T17:18:50.620Z,79.03
2023-02-17T17:21:18.738Z,78.77
2023-02-17T17:23:46.517Z,78.73
2023-02-17T17:26:26.685Z,78.45
2023-02-17T17:28:54.776Z,78.92
2023-02-17T17:31:22.203Z,78.98
2023-02-17T17:33:50.528Z,78.96
2023-02-17T17:36:36.263Z,79.14
2023-02-17T17:39:05.810Z,78.97
2023-02-17T17:41:32.797Z,78.86
2023-02-17T17:44:00.007Z,78.97
2023-02-17T17:46:34.345Z,78.92
2023-02-17T17:49:01.794Z,79.44
2023-02-17T17:51:30.019Z,79.28
2023-02-17T17:53:57.118Z,79.38
2023-02-17T17:56:29.669Z,79.84
2023-02-17T17:59:00.445Z,79.72
2023-02-17T18:01:27.566Z,79.61
2023-02-17T18:03:54.873Z,80.30
2023-02-17T18:06:42.520Z,80.18
2023-02-17T18:09:25.669Z,80.56
2023-02-17T18:11:59.247Z,80.79
2023-02-17T18:14:25.880Z,81.06
2023-02-17T18:16:52.406Z,80.94
2023-02-17T18:19:20.075Z,80.90
2023-02-17T18:21:47.806Z,80.98
2023-02-17T18:24:14.445Z,80.98
2023-02-17T18:26:40.975Z,81.08
2023-02-17T18:29:07.645Z,81.24
2023-02-17T18:34:05.401Z,80.96
2023-02-17T18:36:32.037Z,79.89
2023-02-17T18:38:58.603Z,80.70
2023-02-17T18:41:28.326Z,80.90
2023-02-17T18:46:28.520Z,81.39
2023-02-17T18:48:56.009Z,81.48
2023-02-17T18:51:24.046Z,81.59
2023-02-17T18:53:51.018Z,82.10
2023-02-17T18:56:20.892Z,82.57
2023-02-17T18:58:49.702Z,82.66
2023-02-17T19:01:17.927Z,82.34
2023-02-17T19:06:21.538Z,82.91
2023-02-17T19:08:48.825Z,83.48
2023-02-17T19:11:18.172Z,83.76
2023-02-17T19:13:44.718Z,84.00
2023-02-17T19:16:13.855Z,84.06
2023-02-17T19:18:42.099Z,84.38
2023-02-17T19:21:09.692Z,85.16
2023-02-17T19:23:36.924Z,86.12
2023-02-17T19:26:07.934Z,86.66
2023-02-17T19:28:36.495Z,87.22
2023-02-17T19:31:06.357Z,88.21
2023-02-17T19:33:33.035Z,88.72
2023-02-17T19:35:59.561Z,89.09
2023-02-17T19:40:57.582Z,90.34
2023-02-17T19:43:24.158Z,90.51
2023-02-17T19:45:50.823Z,90.77
2023-02-17T19:48:17.470Z,91.14
2023-02-17T19:50:44.099Z,91.57
2023-02-17T19:55:49.345Z,92.19
2023-02-17T19:58:15.879Z,92.63
2023-02-17T20:00:42.570Z,90.42
2023-02-17T20:03:09.167Z,90.32
2023-02-17T20:05:42.590Z,89.31
2023-02-17T20:13:12.053Z,88.33
2023-02-17T20:15:38.718Z,88.33
2023-02-17T20:18:05.306Z,88.75
2023-02-17T20:20:31.809Z,88.76
2023-02-17T20:22:58.404Z,88.97
2023-02-17T20:25:24.923Z,89.09
2023-02-17T20:27:52.835Z,89.17
2023-02-17T20:30:19.781Z,89.38
2023-02-17T20:32:46.307Z,89.55
2023-02-17T20:35:14.198Z,89.43
2023-02-17T20:37:40.715Z,89.23
2023-02-17T20:40:07.777Z,88.41
2023-02-17T20:42:34.347Z,88.34
2023-02-17T20:45:00.882Z,88.30
2023-02-17T20:47:27.470Z,87.19
2023-02-17T20:49:54.095Z,86.98
2023-02-17T20:54:53.660Z,87.09
2023-02-17T20:57:20.237Z,86.35
2023-02-17T20:59:47.141Z,85.42
2023-02-17T21:02:13.746Z,84.60
2023-02-17T21:04:40.298Z,84.46
2023-02-17T21:07:06.799Z,84.17
2023-02-17T21:09:33.339Z,83.94
2023-02-17T21:11:59.840Z,83.06
2023-02-17T21:14:26.388Z,82.62
2023-02-17T21:16:53.140Z,81.89
2023-02-17T21:19:19.797Z,81.24
2023-02-17T21:21:46.616Z,80.58
2023-02-17T21:24:13.420Z,80.17
2023-02-17T21:26:41.956Z,79.65
2023-02-17T21:29:08.455Z,79.81
2023-02-17T21:31:37.085Z,79.67
2023-02-17T21:34:04.139Z,79.07
2023-02-17T21:36:30.699Z,79.19
2023-02-17T21:38:57.831Z,79.14
2023-02-17T21:41:26.644Z,79.39
2023-02-17T21:44:12.716Z,79.32
2023-02-17T21:46:41.885Z,80.01
2023-02-17T21:49:08.556Z,80.13
2023-02-17T21:51:37.866Z,80.52
2023-02-17T21:54:05.893Z,80.74
2023-02-17T21:56:32.718Z,79.97
2023-02-17T21:58:59.325Z,80.06
2023-02-17T22:01:27.772Z,80.32
2023-02-17T22:03:55.281Z,80.31
2023-02-17T22:06:28.612Z,80.21
2023-02-17T22:08:56.448Z,79.57
2023-02-17T22:11:29.531Z,78.77
2023-02-17T22:13:58.011Z,78.39
2023-02-17T22:16:25.418Z,78.29
2023-02-17T22:18:52.464Z,77.83
2023-02-17T22:21:19.016Z,77.84
2023-02-17T22:23:45.967Z,77.98
2023-02-17T22:26:18.909Z,77.15
2023-02-17T22:31:23.126Z,78.04
2023-02-17T22:33:49.949Z,77.23
2023-02-17T22:36:19.571Z,77.23
2023-02-17T22:38:46.104Z,76.99
2023-02-17T22:41:16.006Z,76.77
2023-02-17T22:43:43.560Z,76.60
2023-02-17T22:46:11.104Z,76.78
2023-02-17T22:48:38.945Z,76.46
2023-02-17T22:51:07.012Z,76.11
2023-02-17T22:53:34.683Z,75.97
2023-02-17T22:58:33.114Z,76.34
2023-02-17T23:01:03.391Z,76.25
2023-02-17T23:03:29.958Z,75.74
2023-02-17T23:06:07.939Z,76.20
2023-02-17T23:08:34.814Z,76.99
2023-02-17T23:11:05.645Z,77.33
2023-02-17T23:13:33.364Z,76.93
2023-02-17T23:15:59.912Z,77.35
2023-02-17T23:18:28.733Z,76.73
2023-02-17T23:20:55.290Z,76.74
2023-02-17T23:23:22.269Z,76.71
2023-02-17T23:25:54.979Z,77.23
2023-02-17T23:30:55.434Z,77.35
2023-02-17T23:33:23.479Z,77.22
2023-02-17T23:35:50.080Z,77.26
2023-02-17T23:38:21.527Z,77.55
2023-02-17T23:40:51.916Z,77.76
2023-02-17T23:43:19.434Z,77.69
2023-02-17T23:45:46.171Z,77.88
2023-02-17T23:48:13.352Z,78.00
2023-02-17T23:50:39.968Z,77.59
2023-02-17T23:53:06.748Z,77.70
2023-02-17T23:55:33.701Z,77.84
2023-02-17T23:58:00.796Z,78.05
